sensor_id;sensor_type;location;lat;lon;timestamp;P1;durP1;ratioP1;P2;durP2;ratioP2
3267;SDS011;1646;52.450;13.326;2024-02-26T00:02:33;17.90;;;8.50;;
3267;SDS011;1646;52.450;13.326;2024-02-26T00:07:35;15.63;;;8.47;;
3267;SDS011;1646;52.450;13.326;2024-02-26T00:12:34;20.23;;;9.00;;
3267;SDS011;1646;52.450;13.326;2024-02-26T00:17:32;12.73;;;7.93;;
3267;SDS011;1646;52.450;13.326;2024-02-26T00:22:30;16.00;;;8.37;;
3267;SDS011;1646;52.450;13.326;2024-02-26T00:27:30;12.77;;;7.80;;
3267;SDS011;1646;52.450;13.326;2024-02-26T00:32:28;16.60;;;8.10;;
3267;SDS011;1646;52.450;13.326;2024-02-26T00:37:27;15.00;;;7.87;;
3267;SDS011;1646;52.450;13.326;2024-02-26T00:42:25;15.50;;;9.50;;
3267;SDS011;1646;52.450;13.326;2024-02-26T00:47:24;14.10;;;8.90;;
3267;SDS011;1646;52.450;13.326;2024-02-26T00:52:23;15.00;;;8.70;;
3267;SDS011;1646;52.450;13.326;2024-02-26T00:57:21;15.37;;;8.37;;
3267;SDS011;1646;52.450;13.326;2024-02-26T01:02:19;16.57;;;9.60;;
3267;SDS011;1646;52.450;13.326;2024-02-26T01:07:20;16.37;;;9.20;;
3267;SDS011;1646;52.450;13.326;2024-02-26T01:12:18;17.93;;;9.30;;
3267;SDS011;1646;52.450;13.326;2024-02-26T01:17:16;20.33;;;10.17;;
3267;SDS011;1646;52.450;13.326;2024-02-26T01:22:15;14.70;;;8.13;;
3267;SDS011;1646;52.450;13.326;2024-02-26T01:27:15;16.47;;;10.03;;
3267;SDS011;1646;52.450;13.326;2024-02-26T01:32:13;14.73;;;9.37;;
3267;SDS011;1646;52.450;13.326;2024-02-26T01:37:11;18.33;;;9.40;;
3267;SDS011;1646;52.450;13.326;2024-02-26T01:42:10;20.10;;;10.50;;
3267;SDS011;1646;52.450;13.326;2024-02-26T01:47:10;14.20;;;9.00;;
3267;SDS011;1646;52.450;13.326;2024-02-26T01:52:09;20.20;;;10.40;;
3267;SDS011;1646;52.450;13.326;2024-02-26T01:57:08;20.90;;;10.73;;
3267;SDS011;1646;52.450;13.326;2024-02-26T02:02:07;19.30;;;10.83;;
3267;SDS011;1646;52.450;13.326;2024-02-26T02:07:08;23.87;;;13.00;;
3267;SDS011;1646;52.450;13.326;2024-02-26T02:12:06;16.40;;;9.73;;
3267;SDS011;1646;52.450;13.326;2024-02-26T02:17:05;19.53;;;10.80;;
3267;SDS011;1646;52.450;13.326;2024-02-26T02:22:05;15.73;;;9.67;;
3267;SDS011;1646;52.450;13.326;2024-02-26T02:27:04;18.40;;;9.90;;
3267;SDS011;1646;52.450;13.326;2024-02-26T02:32:02;17.43;;;10.80;;
3267;SDS011;1646;52.450;13.326;2024-02-26T02:37:02;19.50;;;10.87;;
3267;SDS011;1646;52.450;13.326;2024-02-26T02:42:02;17.90;;;10.40;;
3267;SDS011;1646;52.450;13.326;2024-02-26T02:47:01;16.97;;;10.13;;
3267;SDS011;1646;52.450;13.326;2024-02-26T02:51:59;24.07;;;11.00;;
3267;SDS011;1646;52.450;13.326;2024-02-26T02:56:57;19.10;;;10.57;;
3267;SDS011;1646;52.450;13.326;2024-02-26T03:01:57;21.63;;;10.17;;
3267;SDS011;1646;52.450;13.326;2024-02-26T03:06:55;15.73;;;9.80;;
3267;SDS011;1646;52.450;13.326;2024-02-26T03:11:54;15.77;;;9.53;;
3267;SDS011;1646;52.450;13.326;2024-02-26T03:16:53;15.23;;;9.13;;
3267;SDS011;1646;52.450;13.326;2024-02-26T03:21:53;19.00;;;10.33;;
3267;SDS011;1646;52.450;13.326;2024-02-26T03:26:51;15.20;;;8.70;;
3267;SDS011;1646;52.450;13.326;2024-02-26T03:31:49;13.80;;;9.10;;
3267;SDS011;1646;52.450;13.326;2024-02-26T03:36:47;11.90;;;8.80;;
3267;SDS011;1646;52.450;13.326;2024-02-26T03:41:47;20.60;;;11.93;;
3267;SDS011;1646;52.450;13.326;2024-02-26T03:46:45;17.30;;;9.47;;
3267;SDS011;1646;52.450;13.326;2024-02-26T03:51:44;17.63;;;10.33;;
3267;SDS011;1646;52.450;13.326;2024-02-26T03:56:42;17.80;;;10.60;;
3267;SDS011;1646;52.450;13.326;2024-02-26T04:01:45;19.77;;;11.87;;
3267;SDS011;1646;52.450;13.326;2024-02-26T04:06:44;20.23;;;10.20;;
3267;SDS011;1646;52.450;13.326;2024-02-26T04:11:43;18.40;;;11.10;;
3267;SDS011;1646;52.450;13.326;2024-02-26T04:16:41;19.67;;;10.87;;
3267;SDS011;1646;52.450;13.326;2024-02-26T04:21:43;20.60;;;11.83;;
3267;SDS011;1646;52.450;13.326;2024-02-26T04:26:41;18.67;;;10.37;;
3267;SDS011;1646;52.450;13.326;2024-02-26T04:31:39;17.10;;;9.93;;
3267;SDS011;1646;52.450;13.326;2024-02-26T04:36:39;16.30;;;10.03;;
3267;SDS011;1646;52.450;13.326;2024-02-26T04:41:38;13.17;;;8.60;;
3267;SDS011;1646;52.450;13.326;2024-02-26T04:46:37;14.93;;;9.80;;
3267;SDS011;1646;52.450;13.326;2024-02-26T04:51:35;18.60;;;9.20;;
3267;SDS011;1646;52.450;13.326;2024-02-26T04:56:34;16.30;;;9.83;;
3267;SDS011;1646;52.450;13.326;2024-02-26T05:01:34;16.60;;;10.90;;
3267;SDS011;1646;52.450;13.326;2024-02-26T05:06:33;19.70;;;11.57;;
3267;SDS011;1646;52.450;13.326;2024-02-26T05:11:31;18.33;;;10.00;;
3267;SDS011;1646;52.450;13.326;2024-02-26T05:16:29;18.67;;;11.30;;
3267;SDS011;1646;52.450;13.326;2024-02-26T05:21:29;18.20;;;11.17;;
3267;SDS011;1646;52.450;13.326;2024-02-26T05:26:27;17.40;;;9.80;;
3267;SDS011;1646;52.450;13.326;2024-02-26T05:31:26;14.70;;;9.37;;
3267;SDS011;1646;52.450;13.326;2024-02-26T05:36:25;17.97;;;10.20;;
3267;SDS011;1646;52.450;13.326;2024-02-26T05:41:26;19.33;;;12.30;;
3267;SDS011;1646;52.450;13.326;2024-02-26T05:46:25;19.73;;;11.83;;
3267;SDS011;1646;52.450;13.326;2024-02-26T05:51:23;21.37;;;12.83;;
3267;SDS011;1646;52.450;13.326;2024-02-26T05:56:22;17.40;;;10.37;;
3267;SDS011;1646;52.450;13.326;2024-02-26T06:01:22;21.90;;;12.17;;
3267;SDS011;1646;52.450;13.326;2024-02-26T06:06:21;22.60;;;11.77;;
3267;SDS011;1646;52.450;13.326;2024-02-26T06:11:20;17.43;;;10.53;;
3267;SDS011;1646;52.450;13.326;2024-02-26T06:16:19;20.27;;;11.50;;
3267;SDS011;1646;52.450;13.326;2024-02-26T06:21:19;19.17;;;12.30;;
3267;SDS011;1646;52.450;13.326;2024-02-26T06:26:17;22.77;;;13.20;;
3267;SDS011;1646;52.450;13.326;2024-02-26T06:31:15;21.00;;;13.17;;
3267;SDS011;1646;52.450;13.326;2024-02-26T06:36:14;25.63;;;14.37;;
3267;SDS011;1646;52.450;13.326;2024-02-26T06:41:14;22.87;;;13.43;;
3267;SDS011;1646;52.450;13.326;2024-02-26T06:46:12;27.57;;;14.23;;
3267;SDS011;1646;52.450;13.326;2024-02-26T06:51:11;29.50;;;16.20;;
3267;SDS011;1646;52.450;13.326;2024-02-26T06:56:09;25.80;;;14.63;;
3267;SDS011;1646;52.450;13.326;2024-02-26T07:01:09;23.90;;;13.90;;
3267;SDS011;1646;52.450;13.326;2024-02-26T07:06:09;29.70;;;16.37;;
3267;SDS011;1646;52.450;13.326;2024-02-26T07:11:10;27.80;;;13.97;;
3267;SDS011;1646;52.450;13.326;2024-02-26T07:16:10;31.97;;;17.73;;
3267;SDS011;1646;52.450;13.326;2024-02-26T07:21:08;31.20;;;16.80;;
3267;SDS011;1646;52.450;13.326;2024-02-26T07:26:06;31.63;;;15.97;;
3267;SDS011;1646;52.450;13.326;2024-02-26T07:31:05;30.47;;;16.73;;
3267;SDS011;1646;52.450;13.326;2024-02-26T07:36:05;35.70;;;17.13;;
3267;SDS011;1646;52.450;13.326;2024-02-26T07:41:04;35.93;;;16.83;;
3267;SDS011;1646;52.450;13.326;2024-02-26T07:46:03;29.87;;;16.97;;
3267;SDS011;1646;52.450;13.326;2024-02-26T07:51:01;34.23;;;16.70;;
3267;SDS011;1646;52.450;13.326;2024-02-26T07:56:02;28.73;;;15.20;;
3267;SDS011;1646;52.450;13.326;2024-02-26T08:01:01;25.93;;;15.30;;
3267;SDS011;1646;52.450;13.326;2024-02-26T08:05:59;25.93;;;15.57;;
3267;SDS011;1646;52.450;13.326;2024-02-26T08:10:57;23.50;;;14.20;;
3267;SDS011;1646;52.450;13.326;2024-02-26T08:15:57;29.87;;;16.27;;
3267;SDS011;1646;52.450;13.326;2024-02-26T08:20:56;25.97;;;15.73;;
3267;SDS011;1646;52.450;13.326;2024-02-26T08:25:54;29.80;;;14.43;;
3267;SDS011;1646;52.450;13.326;2024-02-26T08:30:53;26.60;;;16.07;;
3267;SDS011;1646;52.450;13.326;2024-02-26T08:36:11;25.80;;;14.93;;
3267;SDS011;1646;52.450;13.326;2024-02-26T08:41:09;30.97;;;16.00;;
3267;SDS011;1646;52.450;13.326;2024-02-26T08:46:08;26.10;;;14.93;;
3267;SDS011;1646;52.450;13.326;2024-02-26T08:51:07;26.97;;;15.53;;
3267;SDS011;1646;52.450;13.326;2024-02-26T08:56:07;18.20;;;13.00;;
3267;SDS011;1646;52.450;13.326;2024-02-26T09:01:05;19.20;;;12.90;;
3267;SDS011;1646;52.450;13.326;2024-02-26T09:06:03;24.63;;;14.83;;
3267;SDS011;1646;52.450;13.326;2024-02-26T09:11:05;22.90;;;13.60;;
3267;SDS011;1646;52.450;13.326;2024-02-26T09:16:04;29.10;;;16.63;;
3267;SDS011;1646;52.450;13.326;2024-02-26T09:21:04;21.20;;;14.80;;
3267;SDS011;1646;52.450;13.326;2024-02-26T09:26:03;29.77;;;15.90;;
3267;SDS011;1646;52.450;13.326;2024-02-26T09:31:21;29.50;;;14.30;;
3267;SDS011;1646;52.450;13.326;2024-02-26T09:36:20;21.63;;;13.50;;
3267;SDS011;1646;52.450;13.326;2024-02-26T09:41:20;19.03;;;12.33;;
3267;SDS011;1646;52.450;13.326;2024-02-26T09:46:18;20.17;;;14.40;;
3267;SDS011;1646;52.450;13.326;2024-02-26T09:51:17;20.70;;;13.17;;
3267;SDS011;1646;52.450;13.326;2024-02-26T09:56:18;21.90;;;13.20;;
3267;SDS011;1646;52.450;13.326;2024-02-26T10:01:18;18.97;;;13.27;;
3267;SDS011;1646;52.450;13.326;2024-02-26T10:06:18;20.73;;;13.67;;
3267;SDS011;1646;52.450;13.326;2024-02-26T10:11:17;19.63;;;12.50;;
3267;SDS011;1646;52.450;13.326;2024-02-26T10:16:16;15.97;;;11.87;;
3267;SDS011;1646;52.450;13.326;2024-02-26T10:21:16;23.13;;;10.60;;
3267;SDS011;1646;52.450;13.326;2024-02-26T10:26:15;17.97;;;10.63;;
3267;SDS011;1646;52.450;13.326;2024-02-26T10:31:14;14.37;;;10.17;;
3267;SDS011;1646;52.450;13.326;2024-02-26T10:36:14;14.77;;;9.57;;
3267;SDS011;1646;52.450;13.326;2024-02-26T10:41:13;11.90;;;9.50;;
3267;SDS011;1646;52.450;13.326;2024-02-26T10:46:12;10.63;;;8.10;;
3267;SDS011;1646;52.450;13.326;2024-02-26T10:51:11;15.37;;;9.93;;
3267;SDS011;1646;52.450;13.326;2024-02-26T10:56:13;18.93;;;9.90;;
3267;SDS011;1646;52.450;13.326;2024-02-26T11:01:13;12.93;;;8.47;;
3267;SDS011;1646;52.450;13.326;2024-02-26T11:06:12;10.40;;;8.10;;
3267;SDS011;1646;52.450;13.326;2024-02-26T11:11:13;13.13;;;8.23;;
3267;SDS011;1646;52.450;13.326;2024-02-26T11:16:12;11.43;;;7.40;;
3267;SDS011;1646;52.450;13.326;2024-02-26T11:21:11;11.20;;;7.63;;
3267;SDS011;1646;52.450;13.326;2024-02-26T11:26:14;11.80;;;6.57;;
3267;SDS011;1646;52.450;13.326;2024-02-26T11:31:14;9.97;;;7.00;;
3267;SDS011;1646;52.450;13.326;2024-02-26T11:36:14;8.57;;;6.33;;
3267;SDS011;1646;52.450;13.326;2024-02-26T11:41:17;10.93;;;6.90;;
3267;SDS011;1646;52.450;13.326;2024-02-26T11:46:24;9.70;;;7.20;;
3267;SDS011;1646;52.450;13.326;2024-02-26T11:51:26;8.87;;;7.10;;
3267;SDS011;1646;52.450;13.326;2024-02-26T11:56:26;9.33;;;6.60;;
3267;SDS011;1646;52.450;13.326;2024-02-26T12:01:41;11.43;;;6.40;;
3267;SDS011;1646;52.450;13.326;2024-02-26T12:06:45;10.20;;;7.27;;
3267;SDS011;1646;52.450;13.326;2024-02-26T12:11:46;15.43;;;8.23;;
3267;SDS011;1646;52.450;13.326;2024-02-26T12:16:45;10.63;;;6.97;;
3267;SDS011;1646;52.450;13.326;2024-02-26T12:21:44;9.20;;;5.90;;
3267;SDS011;1646;52.450;13.326;2024-02-26T12:26:50;13.43;;;7.37;;
3267;SDS011;1646;52.450;13.326;2024-02-26T12:31:49;7.87;;;5.83;;
3267;SDS011;1646;52.450;13.326;2024-02-26T12:36:48;12.60;;;6.00;;
3267;SDS011;1646;52.450;13.326;2024-02-26T12:41:46;12.23;;;5.90;;
3267;SDS011;1646;52.450;13.326;2024-02-26T12:46:47;8.23;;;5.90;;
3267;SDS011;1646;52.450;13.326;2024-02-26T12:51:45;8.80;;;6.23;;
3267;SDS011;1646;52.450;13.326;2024-02-26T12:56:45;8.07;;;5.77;;
3267;SDS011;1646;52.450;13.326;2024-02-26T13:01:43;6.43;;;4.77;;
3267;SDS011;1646;52.450;13.326;2024-02-26T13:06:44;9.87;;;6.50;;
3267;SDS011;1646;52.450;13.326;2024-02-26T13:11:43;11.90;;;7.73;;
3267;SDS011;1646;52.450;13.326;2024-02-26T13:16:44;10.80;;;7.80;;
3267;SDS011;1646;52.450;13.326;2024-02-26T13:21:42;13.57;;;7.53;;
3267;SDS011;1646;52.450;13.326;2024-02-26T13:26:42;11.23;;;7.90;;
3267;SDS011;1646;52.450;13.326;2024-02-26T13:31:40;11.40;;;8.13;;
3267;SDS011;1646;52.450;13.326;2024-02-26T13:36:40;11.70;;;6.80;;
3267;SDS011;1646;52.450;13.326;2024-02-26T13:41:39;11.80;;;6.33;;
3267;SDS011;1646;52.450;13.326;2024-02-26T13:46:40;6.70;;;5.50;;
3267;SDS011;1646;52.450;13.326;2024-02-26T13:51:38;7.37;;;5.03;;
3267;SDS011;1646;52.450;13.326;2024-02-26T13:56:37;10.53;;;5.57;;
3267;SDS011;1646;52.450;13.326;2024-02-26T14:01:37;9.00;;;4.60;;
3267;SDS011;1646;52.450;13.326;2024-02-26T14:06:35;8.50;;;4.60;;
3267;SDS011;1646;52.450;13.326;2024-02-26T14:11:34;8.70;;;5.10;;
3267;SDS011;1646;52.450;13.326;2024-02-26T14:16:32;12.30;;;5.67;;
3267;SDS011;1646;52.450;13.326;2024-02-26T14:21:32;10.83;;;5.33;;
3267;SDS011;1646;52.450;13.326;2024-02-26T14:26:30;8.83;;;6.03;;
3267;SDS011;1646;52.450;13.326;2024-02-26T14:31:29;11.20;;;5.60;;
3267;SDS011;1646;52.450;13.326;2024-02-26T14:36:27;8.43;;;4.87;;
3267;SDS011;1646;52.450;13.326;2024-02-26T14:41:27;9.63;;;6.07;;
3267;SDS011;1646;52.450;13.326;2024-02-26T14:46:25;8.73;;;5.40;;
3267;SDS011;1646;52.450;13.326;2024-02-26T14:51:23;11.10;;;6.20;;
3267;SDS011;1646;52.450;13.326;2024-02-26T14:56:22;9.23;;;5.63;;
3267;SDS011;1646;52.450;13.326;2024-02-26T15:01:23;8.43;;;5.00;;
3267;SDS011;1646;52.450;13.326;2024-02-26T15:06:21;9.00;;;5.50;;
3267;SDS011;1646;52.450;13.326;2024-02-26T15:11:20;11.27;;;6.87;;
3267;SDS011;1646;52.450;13.326;2024-02-26T15:16:18;8.47;;;6.30;;
3267;SDS011;1646;52.450;13.326;2024-02-26T15:21:18;14.93;;;6.87;;
3267;SDS011;1646;52.450;13.326;2024-02-26T15:26:17;11.20;;;6.70;;
3267;SDS011;1646;52.450;13.326;2024-02-26T15:31:15;12.77;;;7.10;;
3267;SDS011;1646;52.450;13.326;2024-02-26T15:36:14;14.60;;;6.93;;
3267;SDS011;1646;52.450;13.326;2024-02-26T15:41:14;10.17;;;6.73;;
3267;SDS011;1646;52.450;13.326;2024-02-26T15:46:13;11.40;;;6.43;;
3267;SDS011;1646;52.450;13.326;2024-02-26T15:51:18;12.60;;;7.27;;
3267;SDS011;1646;52.450;13.326;2024-02-26T15:56:18;12.40;;;8.40;;
3267;SDS011;1646;52.450;13.326;2024-02-26T16:01:21;13.73;;;7.53;;
3267;SDS011;1646;52.450;13.326;2024-02-26T16:06:24;15.60;;;7.80;;
3267;SDS011;1646;52.450;13.326;2024-02-26T16:11:28;13.97;;;8.13;;
3267;SDS011;1646;52.450;13.326;2024-02-26T16:16:26;16.00;;;7.70;;
3267;SDS011;1646;52.450;13.326;2024-02-26T16:21:28;15.60;;;8.70;;
3267;SDS011;1646;52.450;13.326;2024-02-26T16:26:27;22.83;;;9.30;;
3267;SDS011;1646;52.450;13.326;2024-02-26T16:31:26;15.97;;;10.10;;
3267;SDS011;1646;52.450;13.326;2024-02-26T16:36:25;17.10;;;9.60;;
3267;SDS011;1646;52.450;13.326;2024-02-26T16:41:23;17.77;;;10.40;;
3267;SDS011;1646;52.450;13.326;2024-02-26T16:46:23;19.20;;;11.27;;
3267;SDS011;1646;52.450;13.326;2024-02-26T16:51:21;18.00;;;10.70;;
3267;SDS011;1646;52.450;13.326;2024-02-26T16:56:20;20.90;;;12.23;;
3267;SDS011;1646;52.450;13.326;2024-02-26T17:01:18;17.00;;;10.80;;
3267;SDS011;1646;52.450;13.326;2024-02-26T17:06:18;16.90;;;10.17;;
3267;SDS011;1646;52.450;13.326;2024-02-26T17:11:20;15.83;;;10.43;;
3267;SDS011;1646;52.450;13.326;2024-02-26T17:16:20;21.23;;;10.60;;
3267;SDS011;1646;52.450;13.326;2024-02-26T17:21:20;15.70;;;10.43;;
3267;SDS011;1646;52.450;13.326;2024-02-26T17:26:18;20.20;;;12.30;;
3267;SDS011;1646;52.450;13.326;2024-02-26T17:31:18;16.63;;;10.90;;
3267;SDS011;1646;52.450;13.326;2024-02-26T17:36:16;16.77;;;11.00;;
3267;SDS011;1646;52.450;13.326;2024-02-26T17:41:16;28.43;;;13.43;;
3267;SDS011;1646;52.450;13.326;2024-02-26T17:46:14;21.40;;;12.90;;
3267;SDS011;1646;52.450;13.326;2024-02-26T17:51:13;32.90;;;15.80;;
3267;SDS011;1646;52.450;13.326;2024-02-26T17:56:11;35.13;;;15.50;;
3267;SDS011;1646;52.450;13.326;2024-02-26T18:01:12;32.97;;;16.37;;
3267;SDS011;1646;52.450;13.326;2024-02-26T18:06:11;41.03;;;17.47;;
3267;SDS011;1646;52.450;13.326;2024-02-26T18:11:10;32.10;;;16.40;;
3267;SDS011;1646;52.450;13.326;2024-02-26T18:16:09;25.97;;;14.40;;
3267;SDS011;1646;52.450;13.326;2024-02-26T18:21:09;31.73;;;14.17;;
3267;SDS011;1646;52.450;13.326;2024-02-26T18:26:08;24.80;;;13.50;;
3267;SDS011;1646;52.450;13.326;2024-02-26T18:31:07;24.90;;;12.87;;
3267;SDS011;1646;52.450;13.326;2024-02-26T18:36:06;25.10;;;13.03;;
3267;SDS011;1646;52.450;13.326;2024-02-26T18:41:06;27.70;;;13.40;;
3267;SDS011;1646;52.450;13.326;2024-02-26T18:46:05;18.30;;;11.13;;
3267;SDS011;1646;52.450;13.326;2024-02-26T18:51:03;24.47;;;10.60;;
3267;SDS011;1646;52.450;13.326;2024-02-26T18:56:02;24.70;;;11.90;;
3267;SDS011;1646;52.450;13.326;2024-02-26T19:01:02;22.10;;;11.90;;
3267;SDS011;1646;52.450;13.326;2024-02-26T19:06:01;17.73;;;11.50;;
3267;SDS011;1646;52.450;13.326;2024-02-26T19:11:05;24.10;;;10.40;;
3267;SDS011;1646;52.450;13.326;2024-02-26T19:16:05;20.97;;;12.40;;
3267;SDS011;1646;52.450;13.326;2024-02-26T19:21:04;14.70;;;10.13;;
3267;SDS011;1646;52.450;13.326;2024-02-26T19:26:03;24.07;;;10.57;;
3267;SDS011;1646;52.450;13.326;2024-02-26T19:31:02;23.17;;;10.33;;
3267;SDS011;1646;52.450;13.326;2024-02-26T19:36:04;16.03;;;9.50;;
3267;SDS011;1646;52.450;13.326;2024-02-26T19:41:03;15.70;;;9.33;;
3267;SDS011;1646;52.450;13.326;2024-02-26T19:46:01;21.27;;;9.50;;
3267;SDS011;1646;52.450;13.326;2024-02-26T19:51:00;17.37;;;9.43;;
3267;SDS011;1646;52.450;13.326;2024-02-26T19:56:00;13.67;;;8.73;;
3267;SDS011;1646;52.450;13.326;2024-02-26T20:01:02;18.27;;;10.00;;
3267;SDS011;1646;52.450;13.326;2024-02-26T20:06:00;15.77;;;8.27;;
3267;SDS011;1646;52.450;13.326;2024-02-26T20:11:01;13.97;;;8.90;;
3267;SDS011;1646;52.450;13.326;2024-02-26T20:16:00;12.27;;;8.33;;
3267;SDS011;1646;52.450;13.326;2024-02-26T20:20:58;13.40;;;7.90;;
3267;SDS011;1646;52.450;13.326;2024-02-26T20:25:56;16.87;;;8.60;;
3267;SDS011;1646;52.450;13.326;2024-02-26T20:30:58;18.70;;;7.93;;
3267;SDS011;1646;52.450;13.326;2024-02-26T20:35:56;15.17;;;8.10;;
3267;SDS011;1646;52.450;13.326;2024-02-26T20:40:55;13.67;;;9.10;;
3267;SDS011;1646;52.450;13.326;2024-02-26T20:45:53;15.70;;;7.97;;
3267;SDS011;1646;52.450;13.326;2024-02-26T20:50:53;15.87;;;8.77;;
3267;SDS011;1646;52.450;13.326;2024-02-26T20:55:51;12.63;;;7.90;;
3267;SDS011;1646;52.450;13.326;2024-02-26T21:00:50;13.07;;;8.47;;
3267;SDS011;1646;52.450;13.326;2024-02-26T21:05:48;12.13;;;7.70;;
3267;SDS011;1646;52.450;13.326;2024-02-26T21:10:48;11.07;;;7.37;;
3267;SDS011;1646;52.450;13.326;2024-02-26T21:15:47;15.93;;;7.60;;
3267;SDS011;1646;52.450;13.326;2024-02-26T21:20:46;20.83;;;8.10;;
3267;SDS011;1646;52.450;13.326;2024-02-26T21:25:47;12.07;;;7.37;;
3267;SDS011;1646;52.450;13.326;2024-02-26T21:30:46;13.87;;;6.47;;
3267;SDS011;1646;52.450;13.326;2024-02-26T21:35:44;11.17;;;7.43;;
3267;SDS011;1646;52.450;13.326;2024-02-26T21:40:42;9.63;;;6.73;;
3267;SDS011;1646;52.450;13.326;2024-02-26T21:45:42;11.03;;;6.40;;
3267;SDS011;1646;52.450;13.326;2024-02-26T21:50:40;12.00;;;6.70;;
3267;SDS011;1646;52.450;13.326;2024-02-26T21:55:39;10.63;;;6.63;;
3267;SDS011;1646;52.450;13.326;2024-02-26T22:00:38;14.10;;;7.33;;
3267;SDS011;1646;52.450;13.326;2024-02-26T22:05:37;9.50;;;6.27;;
3267;SDS011;1646;52.450;13.326;2024-02-26T22:10:37;9.73;;;5.97;;
3267;SDS011;1646;52.450;13.326;2024-02-26T22:15:37;11.77;;;6.77;;
3267;SDS011;1646;52.450;13.326;2024-02-26T22:20:36;11.20;;;6.33;;
3267;SDS011;1646;52.450;13.326;2024-02-26T22:25:35;9.87;;;6.00;;
3267;SDS011;1646;52.450;13.326;2024-02-26T22:30:34;13.10;;;7.37;;
3267;SDS011;1646;52.450;13.326;2024-02-26T22:35:34;9.67;;;5.87;;
3267;SDS011;1646;52.450;13.326;2024-02-26T22:40:33;15.30;;;6.97;;
3267;SDS011;1646;52.450;13.326;2024-02-26T22:45:32;10.10;;;6.13;;
3267;SDS011;1646;52.450;13.326;2024-02-26T22:50:30;13.50;;;7.43;;
3267;SDS011;1646;52.450;13.326;2024-02-26T22:55:28;8.43;;;6.40;;
3267;SDS011;1646;52.450;13.326;2024-02-26T23:00:28;10.83;;;6.60;;
3267;SDS011;1646;52.450;13.326;2024-02-26T23:05:29;8.97;;;6.40;;
3267;SDS011;1646;52.450;13.326;2024-02-26T23:10:28;12.20;;;7.47;;
3267;SDS011;1646;52.450;13.326;2024-02-26T23:15:28;10.10;;;6.40;;
3267;SDS011;1646;52.450;13.326;2024-02-26T23:20:27;9.17;;;6.50;;
3267;SDS011;1646;52.450;13.326;2024-02-26T23:25:26;11.53;;;6.40;;
3267;SDS011;1646;52.450;13.326;2024-02-26T23:30:24;11.57;;;6.80;;
3267;SDS011;1646;52.450;13.326;2024-02-26T23:35:24;10.67;;;6.67;;
3267;SDS011;1646;52.450;13.326;2024-02-26T23:40:22;12.70;;;6.10;;
3267;SDS011;1646;52.450;13.326;2024-02-26T23:45:23;11.60;;;6.37;;
3267;SDS011;1646;52.450;13.326;2024-02-26T23:50:23;11.60;;;5.97;;
3267;SDS011;1646;52.450;13.326;2024-02-26T23:55:24;12.60;;;6.70;;
